createdAt,value
2017-03-07T00:00:07.507Z,0
2017-03-07T00:01:07.139Z,0
2017-03-07T00:02:07.582Z,0
2017-03-07T00:03:07.204Z,0
2017-03-07T00:04:08.017Z,0
2017-03-07T00:05:06.470Z,0
2017-03-07T00:06:06.522Z,0
2017-03-07T00:07:07.318Z,0
2017-03-07T00:08:06.955Z,0
2017-03-07T00:09:06.658Z,0
2017-03-07T00:10:07.839Z,0
2017-03-07T00:11:07.870Z,0
2017-03-07T00:12:07.921Z,0
2017-03-07T00:13:07.527Z,0
2017-03-07T00:14:07.563Z,0
2017-03-07T00:15:07.608Z,0
2017-03-07T00:16:08.025Z,0
2017-03-07T00:17:07.656Z,0
2017-03-07T00:18:08.108Z,0
2017-03-07T00:19:07.739Z,0
2017-03-07T00:20:07.001Z,0
2017-03-07T00:21:07.797Z,0
2017-03-07T00:22:08.231Z,0
2017-03-07T00:23:07.099Z,0
2017-03-07T00:24:07.915Z,0
2017-03-07T00:25:07.929Z,0
2017-03-07T00:26:07.968Z,0
2017-03-07T00:27:07.603Z,0
2017-03-07T00:28:08.427Z,0
2017-03-07T00:29:07.684Z,0
2017-03-07T00:30:07.711Z,0
2017-03-07T00:31:08.554Z,0
2017-03-07T00:32:08.170Z,0
2017-03-07T00:33:07.819Z,0
2017-03-07T00:34:08.231Z,0
2017-03-07T00:35:08.309Z,0
2017-03-07T00:36:07.942Z,0
2017-03-07T00:37:07.956Z,0
2017-03-07T00:38:08.777Z,0
2017-03-07T00:39:08.018Z,0
2017-03-07T00:40:08.891Z,0
2017-03-07T00:41:08.494Z,0
2017-03-07T00:42:07.740Z,0
2017-03-07T00:43:08.539Z,0
2017-03-07T00:44:08.181Z,0
2017-03-07T00:45:08.257Z,0
2017-03-07T00:46:09.030Z,0
2017-03-07T00:47:08.293Z,0
2017-03-07T00:48:07.927Z,0
2017-03-07T00:49:07.983Z,0
2017-03-07T00:50:09.186Z,0
2017-03-07T00:51:08.024Z,0
2017-03-07T00:52:08.460Z,0
2017-03-07T00:53:08.860Z,0
2017-03-07T00:54:09.308Z,0
2017-03-07T00:55:08.974Z,0
2017-03-07T00:56:09.377Z,0
2017-03-07T00:57:09.413Z,0
2017-03-07T00:58:09.826Z,0
2017-03-07T00:59:09.082Z,0
2017-03-07T01:00:09.548Z,0
2017-03-07T01:01:08.748Z,0
2017-03-07T01:02:09.572Z,0
2017-03-07T01:03:08.449Z,0
2017-03-07T01:04:09.258Z,0
2017-03-07T01:05:09.259Z,0
2017-03-07T01:06:08.920Z,0
2017-03-07T01:07:09.339Z,0
2017-03-07T01:08:09.391Z,0
2017-03-07T01:09:09.080Z,0
2017-03-07T01:10:09.452Z,0
2017-03-07T01:11:09.483Z,0
2017-03-07T01:12:09.500Z,0
2017-03-07T01:13:09.186Z,0
2017-03-07T01:14:09.591Z,0
2017-03-07T01:15:10.030Z,0
2017-03-07T01:16:09.275Z,0
2017-03-07T01:17:10.496Z,0
2017-03-07T01:18:10.125Z,0
2017-03-07T01:19:09.445Z,0
2017-03-07T01:20:09.406Z,0
2017-03-07T01:21:09.843Z,0
2017-03-07T01:22:09.482Z,0
2017-03-07T01:23:10.326Z,0
2017-03-07T01:24:09.918Z,0
2017-03-07T01:25:09.199Z,0
2017-03-07T01:26:09.634Z,0
2017-03-07T01:27:09.665Z,0
2017-03-07T01:28:09.671Z,0
2017-03-07T01:29:09.696Z,0
2017-03-07T01:30:10.146Z,0
2017-03-07T01:31:10.541Z,0
2017-03-07T01:32:10.220Z,0
2017-03-07T01:33:10.212Z,0
2017-03-07T01:34:10.662Z,0
2017-03-07T01:35:10.307Z,0
2017-03-07T01:36:09.927Z,0
2017-03-07T01:37:09.574Z,0
2017-03-07T01:38:10.007Z,0
2017-03-07T01:39:10.829Z,0
2017-03-07T01:40:10.883Z,0
2017-03-07T01:41:10.109Z,0
2017-03-07T01:42:10.520Z,0
2017-03-07T01:43:10.560Z,0
2017-03-07T01:44:10.203Z,0
2017-03-07T01:45:11.448Z,0
2017-03-07T01:46:10.661Z,0
2017-03-07T01:47:10.726Z,0
2017-03-07T01:48:11.135Z,0
2017-03-07T01:49:10.598Z,0
2017-03-07T01:50:10.812Z,0
2017-03-07T01:51:10.455Z,0
2017-03-07T01:52:10.483Z,0
2017-03-07T01:53:10.927Z,0
2017-03-07T01:54:10.938Z,0
2017-03-07T01:55:11.387Z,0
2017-03-07T01:56:11.292Z,0
2017-03-07T01:57:10.659Z,0
2017-03-07T01:58:11.079Z,0
2017-03-07T01:59:10.716Z,0
2017-03-07T02:00:11.159Z,0
2017-03-07T02:01:10.395Z,0
2017-03-07T02:02:11.609Z,0
2017-03-07T02:03:10.854Z,0
2017-03-07T02:04:11.682Z,0
2017-03-07T02:05:10.543Z,0
2017-03-07T02:06:11.375Z,0
2017-03-07T02:07:11.787Z,0
2017-03-07T02:08:11.412Z,0
2017-03-07T02:09:11.305Z,0
2017-03-07T02:10:11.892Z,0
2017-03-07T02:11:11.114Z,0
2017-03-07T02:12:10.786Z,0
2017-03-07T02:13:11.195Z,0
2017-03-07T02:14:11.457Z,0
2017-03-07T02:15:11.652Z,0
2017-03-07T02:16:11.280Z,0
2017-03-07T02:17:11.734Z,0
2017-03-07T02:18:11.748Z,0
2017-03-07T02:19:12.617Z,0
2017-03-07T02:20:12.597Z,0
2017-03-07T02:21:11.068Z,0
2017-03-07T02:22:11.903Z,0
2017-03-07T02:23:12.297Z,0
2017-03-07T02:24:12.399Z,0
2017-03-07T02:25:12.007Z,0
2017-03-07T02:26:11.657Z,0
2017-03-07T02:37:32.417Z,0
2017-03-07T02:38:21.406Z,0
2017-03-07T02:39:21.844Z,0
2017-03-07T02:40:22.258Z,0
2017-03-07T02:41:21.734Z,0
2017-03-07T02:42:21.920Z,0
2017-03-07T02:43:21.569Z,0
2017-03-07T02:44:21.999Z,0
2017-03-07T02:45:22.023Z,0
2017-03-07T02:46:22.061Z,0
2017-03-07T02:47:22.501Z,0
2017-03-07T02:48:21.746Z,0
2017-03-07T02:49:22.575Z,0
2017-03-07T02:50:22.988Z,0
2017-03-07T02:51:22.232Z,0
2017-03-07T02:52:21.877Z,0
2017-03-07T02:53:23.105Z,0
2017-03-07T02:54:22.756Z,0
2017-03-07T02:55:22.761Z,0
2017-03-07T02:56:22.416Z,0
2017-03-07T02:57:22.842Z,0
2017-03-07T02:58:22.472Z,0
2017-03-07T02:59:22.511Z,0
2017-03-07T03:00:22.551Z,0
2017-03-07T03:01:23.355Z,0
2017-03-07T03:02:22.237Z,0
2017-03-07T03:03:23.036Z,0
2017-03-07T03:04:22.665Z,0
2017-03-07T03:05:22.725Z,0
2017-03-07T03:06:22.354Z,0
2017-03-07T03:07:22.770Z,0
2017-03-07T03:08:22.846Z,0
2017-03-07T03:09:22.449Z,0
2017-03-07T03:10:22.509Z,0
2017-03-07T03:11:23.861Z,0
2017-03-07T03:12:23.339Z,0
2017-03-07T03:13:23.376Z,0
2017-03-07T03:14:23.795Z,0
2017-03-07T03:15:23.440Z,0
2017-03-07T03:16:23.466Z,0
2017-03-07T03:17:23.505Z,0
2017-03-07T03:18:23.944Z,0
2017-03-07T03:19:23.582Z,0
2017-03-07T03:20:23.606Z,0
2017-03-07T03:21:23.251Z,0
2017-03-07T03:22:24.075Z,0
2017-03-07T03:23:23.318Z,0
2017-03-07T03:24:23.353Z,0
2017-03-07T03:25:22.991Z,0
2017-03-07T03:26:23.442Z,0
2017-03-07T03:27:23.851Z,0
2017-03-07T03:28:23.098Z,0
2017-03-07T03:29:23.543Z,0
2017-03-07T03:30:23.552Z,0
2017-03-07T03:31:23.986Z,0
2017-03-07T03:32:24.391Z,0
2017-03-07T03:33:23.654Z,0
2017-03-07T03:34:23.671Z,0
2017-03-07T03:35:24.108Z,0
2017-03-07T03:36:23.757Z,0
2017-03-07T03:37:23.393Z,0
2017-03-07T03:38:24.610Z,0
2017-03-07T03:39:24.260Z,0
2017-03-07T03:40:24.277Z,0
2017-03-07T03:41:24.692Z,0
2017-03-07T03:42:24.358Z,0
2017-03-07T03:43:24.789Z,0
2017-03-07T03:44:24.055Z,0
2017-03-07T03:45:24.057Z,0
2017-03-07T03:46:24.107Z,0
2017-03-07T03:47:23.720Z,0
2017-03-07T03:48:23.761Z,0
2017-03-07T03:49:23.805Z,0
2017-03-07T03:50:24.617Z,0
2017-03-07T03:51:24.654Z,0
2017-03-07T03:52:23.926Z,0
2017-03-07T03:53:24.710Z,0
2017-03-07T03:54:25.171Z,0
2017-03-07T03:55:24.771Z,0
2017-03-07T03:56:24.423Z,0
2017-03-07T03:57:24.459Z,0
2017-03-07T03:58:24.510Z,0
2017-03-07T03:59:24.932Z,0
2017-03-07T04:00:24.960Z,0
2017-03-07T04:01:24.998Z,0
2017-03-07T04:02:25.029Z,0
2017-03-07T04:03:25.104Z,0
2017-03-07T04:04:24.706Z,0
2017-03-07T04:05:25.368Z,0
2017-03-07T04:06:24.763Z,0
2017-03-07T04:07:25.997Z,0
2017-03-07T04:08:24.820Z,0
2017-03-07T04:09:24.901Z,0
2017-03-07T04:10:25.671Z,0
2017-03-07T04:11:25.325Z,0
2017-03-07T04:12:24.979Z,0
2017-03-07T04:13:25.420Z,0
2017-03-07T04:14:25.415Z,0
2017-03-07T04:15:25.459Z,0
2017-03-07T04:16:25.104Z,0
2017-03-07T04:17:25.145Z,0
2017-03-07T04:18:25.575Z,0
2017-03-07T04:19:25.584Z,0
2017-03-07T04:20:25.621Z,0
2017-03-07T04:21:25.259Z,0
2017-03-07T04:22:25.309Z,0
2017-03-07T04:23:25.329Z,0
2017-03-07T04:24:26.178Z,0
2017-03-07T04:25:25.807Z,0
2017-03-07T04:26:25.435Z,0
2017-03-07T04:27:26.285Z,0
2017-03-07T04:28:25.129Z,0
2017-03-07T04:29:25.963Z,0
2017-03-07T04:30:25.564Z,0
2017-03-07T04:31:25.233Z,0
2017-03-07T04:32:25.672Z,0
2017-03-07T04:33:26.054Z,0
2017-03-07T04:34:26.094Z,0
2017-03-07T04:35:26.132Z,0
2017-03-07T04:36:25.790Z,0
2017-03-07T04:37:25.809Z,0
2017-03-07T04:38:25.828Z,0
2017-03-07T04:39:25.498Z,0
2017-03-07T04:40:26.321Z,0
2017-03-07T04:41:26.340Z,0
2017-03-07T04:42:26.384Z,0
2017-03-07T04:43:26.796Z,0
2017-03-07T04:44:26.427Z,0
2017-03-07T04:45:25.688Z,0
2017-03-07T04:46:26.126Z,0
2017-03-07T04:47:26.924Z,0
2017-03-07T04:48:26.565Z,0
2017-03-07T04:49:26.202Z,0
2017-03-07T04:50:26.251Z,0
2017-03-07T04:51:26.292Z,0
2017-03-07T04:52:26.712Z,0
2017-03-07T04:53:26.737Z,0
2017-03-07T04:54:26.378Z,0
2017-03-07T04:55:26.020Z,0
2017-03-07T04:56:26.860Z,0
2017-03-07T04:57:26.872Z,0
2017-03-07T04:58:26.147Z,0
2017-03-07T04:59:27.348Z,0
2017-03-07T05:00:26.971Z,0
2017-03-07T05:01:26.229Z,0
2017-03-07T05:02:26.645Z,0
2017-03-07T05:03:27.061Z,0
2017-03-07T05:04:27.107Z,0
2017-03-07T05:05:26.370Z,0
2017-03-07T05:06:27.564Z,0
2017-03-07T05:07:27.219Z,0
2017-03-07T05:08:27.633Z,0
2017-03-07T05:09:26.930Z,0
2017-03-07T05:10:26.529Z,0
2017-03-07T05:11:27.748Z,0
2017-03-07T05:12:26.616Z,0
2017-03-07T05:13:27.407Z,0
2017-03-07T05:14:27.855Z,0
2017-03-07T05:15:27.469Z,0
2017-03-07T05:16:27.155Z,0
2017-03-07T05:17:27.935Z,0
2017-03-07T05:18:26.803Z,0
2017-03-07T05:19:27.218Z,0
2017-03-07T05:20:27.280Z,0
2017-03-07T05:21:28.095Z,0
2017-03-07T05:22:27.704Z,0
2017-03-07T05:23:27.750Z,0
2017-03-07T05:24:27.377Z,0
2017-03-07T05:25:28.225Z,0
2017-03-07T05:26:27.479Z,0
2017-03-07T05:27:27.900Z,0
2017-03-07T05:28:27.916Z,0
2017-03-07T05:29:27.958Z,0
2017-03-07T05:30:27.976Z,0
2017-03-07T05:31:27.620Z,0
2017-03-07T05:32:28.420Z,0
2017-03-07T05:33:28.500Z,0
2017-03-07T05:34:28.122Z,0
2017-03-07T05:35:28.178Z,0
2017-03-07T05:36:27.778Z,0
2017-03-07T05:37:27.453Z,0
2017-03-07T05:38:27.861Z,0
2017-03-07T05:39:28.705Z,0
2017-03-07T05:40:27.912Z,0
2017-03-07T05:41:27.951Z,0
2017-03-07T05:42:28.384Z,0
2017-03-07T05:43:28.411Z,0
2017-03-07T05:44:27.656Z,0
2017-03-07T05:45:28.073Z,0
2017-03-07T05:46:28.123Z,0
2017-03-07T05:47:28.547Z,0
2017-03-07T05:48:28.184Z,0
2017-03-07T05:49:28.235Z,0
2017-03-07T05:50:29.045Z,0
2017-03-07T05:51:29.504Z,0
2017-03-07T05:52:28.318Z,0
2017-03-07T05:53:28.750Z,0
2017-03-07T05:54:28.779Z,0
2017-03-07T05:55:28.811Z,0
2017-03-07T05:56:28.454Z,0
2017-03-07T05:57:29.313Z,0
2017-03-07T05:58:29.333Z,0
2017-03-07T05:59:28.607Z,0
2017-03-07T06:00:29.405Z,0
2017-03-07T06:01:29.033Z,0
2017-03-07T06:02:28.651Z,5
2017-03-07T06:03:29.102Z,0
2017-03-07T06:04:28.722Z,0
2017-03-07T06:05:28.787Z,0
2017-03-07T06:06:28.813Z,0
2017-03-07T06:07:28.826Z,5
2017-03-07T06:08:28.469Z,5
2017-03-07T06:09:29.670Z,5
2017-03-07T06:10:29.333Z,5
2017-03-07T06:11:29.762Z,5
2017-03-07T06:12:28.991Z,5
2017-03-07T06:13:29.834Z,0
2017-03-07T06:14:29.864Z,0
2017-03-07T06:15:30.263Z,0
2017-03-07T06:16:29.119Z,0
2017-03-07T06:17:29.186Z,0
2017-03-07T06:18:28.799Z,0
2017-03-07T06:19:30.025Z,0
2017-03-07T06:20:28.887Z,0
2017-03-07T06:21:30.069Z,0
2017-03-07T06:22:28.945Z,0
2017-03-07T06:23:29.737Z,0
2017-03-07T06:24:31.996Z,0
2017-03-07T06:25:29.432Z,5
2017-03-07T06:26:29.484Z,5
2017-03-07T06:27:29.478Z,5
2017-03-07T06:28:30.341Z,5
2017-03-07T06:29:30.737Z,5
2017-03-07T06:30:29.988Z,5
2017-03-07T06:31:30.041Z,5
2017-03-07T06:32:30.062Z,5
2017-03-07T06:33:30.089Z,5
2017-03-07T06:34:29.733Z,5
2017-03-07T06:35:29.760Z,5
2017-03-07T06:36:30.204Z,5
2017-03-07T06:37:30.658Z,5
2017-03-07T06:38:30.277Z,10
2017-03-07T06:39:30.293Z,10
2017-03-07T06:40:30.340Z,10
2017-03-07T06:41:29.982Z,10
2017-03-07T06:42:29.810Z,10
2017-03-07T06:43:30.423Z,10
2017-03-07T06:44:30.056Z,10
2017-03-07T06:45:30.875Z,10
2017-03-07T06:46:30.155Z,10
2017-03-07T06:47:30.552Z,10
2017-03-07T06:48:30.583Z,10
2017-03-07T06:49:30.629Z,10
2017-03-07T06:50:30.256Z,10
2017-03-07T06:51:30.690Z,10
2017-03-07T06:52:30.316Z,10
2017-03-07T06:53:29.966Z,10
2017-03-07T06:54:30.433Z,10
2017-03-07T06:55:31.239Z,15
2017-03-07T06:56:31.643Z,15
2017-03-07T06:57:31.264Z,10
2017-03-07T06:58:30.528Z,15
2017-03-07T06:59:30.193Z,20
2017-03-07T07:00:30.595Z,15
2017-03-07T07:01:30.264Z,20
2017-03-07T07:02:30.649Z,15
2017-03-07T07:03:30.690Z,20
2017-03-07T07:04:30.727Z,15
2017-03-07T07:05:31.144Z,15
2017-03-07T07:06:30.410Z,20
2017-03-07T07:07:31.220Z,25
2017-03-07T07:08:31.305Z,25
2017-03-07T07:09:32.188Z,25
2017-03-07T07:10:30.546Z,25
2017-03-07T07:11:30.676Z,25
2017-03-07T07:12:31.783Z,25
2017-03-07T07:13:31.413Z,25
2017-03-07T07:14:31.842Z,25
2017-03-07T07:15:30.799Z,25
2017-03-07T07:16:31.504Z,25
2017-03-07T07:17:31.303Z,30
2017-03-07T07:18:31.503Z,35
2017-03-07T07:19:31.548Z,35
2017-03-07T07:20:31.275Z,40
2017-03-07T07:21:31.716Z,40
2017-03-07T07:22:31.292Z,45
2017-03-07T07:23:31.087Z,50
2017-03-07T07:24:31.434Z,45
2017-03-07T07:25:31.846Z,45
2017-03-07T07:26:31.944Z,40
2017-03-07T07:27:31.978Z,40
2017-03-07T07:28:33.485Z,40
2017-03-07T07:29:32.015Z,40
2017-03-07T07:30:32.373Z,35
2017-03-07T07:31:32.036Z,35
2017-03-07T07:32:31.265Z,25
2017-03-07T07:33:32.509Z,25
2017-03-07T07:34:31.741Z,20
2017-03-07T07:35:32.161Z,20
2017-03-07T07:36:31.856Z,25
2017-03-07T07:37:32.231Z,30
2017-03-07T07:38:33.076Z,35
2017-03-07T07:39:32.281Z,30
2017-03-07T07:40:32.384Z,35
2017-03-07T07:41:32.422Z,30
2017-03-07T07:42:31.588Z,35
2017-03-07T07:43:32.466Z,35
2017-03-07T07:44:32.056Z,35
2017-03-07T07:45:31.761Z,35
2017-03-07T07:46:32.230Z,40
2017-03-07T07:47:32.635Z,40
2017-03-07T07:48:31.814Z,35
2017-03-07T07:49:32.218Z,40
2017-03-07T07:50:32.641Z,50
2017-03-07T07:51:31.910Z,55
2017-03-07T07:52:32.495Z,50
2017-03-07T07:53:32.760Z,50
2017-03-07T07:54:32.386Z,55
2017-03-07T07:55:33.237Z,50
2017-03-07T07:56:32.450Z,45
2017-03-07T07:57:32.905Z,50
2017-03-07T07:58:32.554Z,60
2017-03-07T07:59:33.337Z,60
2017-03-07T08:00:32.619Z,60
2017-03-07T08:01:32.658Z,55
2017-03-07T08:02:32.943Z,55
2017-03-07T08:03:32.334Z,55
2017-03-07T08:04:33.115Z,50
2017-03-07T08:05:33.626Z,45
2017-03-07T08:06:32.906Z,50
2017-03-07T08:07:33.247Z,55
2017-03-07T08:08:32.852Z,50
2017-03-07T08:09:32.496Z,50
2017-03-07T08:10:32.935Z,50
2017-03-07T08:11:33.356Z,55
2017-03-07T08:12:32.615Z,55
2017-03-07T08:13:33.436Z,55
2017-03-07T08:14:33.452Z,55
2017-03-07T08:15:33.173Z,50
2017-03-07T08:16:33.147Z,45
2017-03-07T08:17:33.203Z,55
2017-03-07T08:18:33.282Z,60
2017-03-07T08:19:33.660Z,60
2017-03-07T08:20:34.031Z,65
2017-03-07T08:21:33.382Z,60
2017-03-07T08:22:33.351Z,55
2017-03-07T08:23:33.350Z,55
2017-03-07T08:24:33.372Z,60
2017-03-07T08:25:33.852Z,65
2017-03-07T08:26:33.436Z,70
2017-03-07T08:27:33.877Z,75
2017-03-07T08:28:34.328Z,65
2017-03-07T08:29:34.034Z,50
2017-03-07T08:30:34.406Z,50
2017-03-07T08:31:34.034Z,45
2017-03-07T08:32:34.472Z,50
2017-03-07T08:33:33.668Z,60
2017-03-07T08:34:33.742Z,55
2017-03-07T08:35:33.777Z,60
2017-03-07T08:36:33.483Z,70
2017-03-07T08:37:34.212Z,75
2017-03-07T08:38:34.690Z,65
2017-03-07T08:39:33.932Z,65
2017-03-07T08:40:34.288Z,70
2017-03-07T08:41:34.341Z,70
2017-03-07T08:42:33.965Z,70
2017-03-07T08:43:34.165Z,75
2017-03-07T08:44:34.436Z,75
2017-03-07T08:45:34.484Z,80
2017-03-07T08:46:34.110Z,90
2017-03-07T08:47:34.594Z,115
2017-03-07T08:48:34.606Z,130
2017-03-07T08:49:34.238Z,145
2017-03-07T08:50:34.765Z,145
2017-03-07T08:51:34.694Z,135
2017-03-07T08:52:34.402Z,130
2017-03-07T08:53:34.837Z,135
2017-03-07T08:54:34.786Z,170
2017-03-07T08:55:34.816Z,175
2017-03-07T08:56:34.084Z,155
2017-03-07T08:57:34.526Z,160
2017-03-07T08:58:34.141Z,160
2017-03-07T08:59:35.349Z,240
2017-03-07T09:00:35.368Z,225
2017-03-07T09:01:35.056Z,305
2017-03-07T09:02:37.457Z,320
2017-03-07T09:03:35.129Z,295
2017-03-07T09:04:35.240Z,255
2017-03-07T09:05:35.150Z,225
2017-03-07T09:06:35.183Z,210
2017-03-07T09:07:35.664Z,185
2017-03-07T09:08:35.174Z,190
2017-03-07T09:09:34.906Z,175
2017-03-07T09:10:35.731Z,170
2017-03-07T09:11:35.043Z,175
2017-03-07T09:12:34.612Z,175
2017-03-07T09:13:35.042Z,175
2017-03-07T09:14:34.670Z,160
2017-03-07T09:15:35.489Z,180
2017-03-07T09:16:35.970Z,170
2017-03-07T09:17:35.621Z,180
2017-03-07T09:18:35.231Z,175
2017-03-07T09:19:35.635Z,185
2017-03-07T09:20:35.655Z,200
2017-03-07T09:21:35.731Z,200
2017-03-07T09:22:35.754Z,205
2017-03-07T09:23:35.807Z,200
2017-03-07T09:24:36.131Z,200
2017-03-07T09:25:42.214Z,175
2017-03-07T09:26:39.530Z,150
2017-03-07T09:27:35.507Z,155
2017-03-07T09:28:35.933Z,150
2017-03-07T09:29:36.092Z,150
2017-03-07T09:30:35.608Z,135
2017-03-07T09:31:37.081Z,135
2017-03-07T09:32:36.453Z,130
2017-03-07T09:33:36.229Z,125
2017-03-07T09:34:35.349Z,115
2017-03-07T09:35:36.018Z,120
2017-03-07T09:36:36.223Z,105
2017-03-07T09:37:36.655Z,85
2017-03-07T09:38:36.315Z,75
2017-03-07T09:39:36.690Z,80
2017-03-07T09:40:36.702Z,85
2017-03-07T09:41:37.348Z,90
2017-03-07T09:42:38.444Z,105
2017-03-07T09:43:35.758Z,100
2017-03-07T09:44:36.556Z,105
2017-03-07T09:45:36.027Z,120
2017-03-07T09:46:36.643Z,115
2017-03-07T09:47:36.689Z,130
2017-03-07T09:48:35.913Z,140
2017-03-07T09:49:36.232Z,145
2017-03-07T09:50:36.675Z,135
2017-03-07T09:51:36.456Z,140
2017-03-07T09:52:37.154Z,135
2017-03-07T09:53:36.360Z,135
2017-03-07T09:54:36.492Z,135
2017-03-07T09:55:37.093Z,130
2017-03-07T09:56:36.732Z,115
2017-03-07T09:57:37.672Z,120
2017-03-07T09:58:36.543Z,120
2017-03-07T09:59:36.978Z,120
2017-03-07T10:00:37.036Z,120
2017-03-07T10:01:37.080Z,115
2017-03-07T10:02:36.957Z,120
2017-03-07T10:03:36.739Z,120
2017-03-07T10:04:37.197Z,130
2017-03-07T10:05:37.221Z,125
2017-03-07T10:06:37.262Z,130
2017-03-07T10:07:37.053Z,135
2017-03-07T10:08:36.892Z,135
2017-03-07T10:09:36.935Z,130
2017-03-07T10:10:37.352Z,135
2017-03-07T10:11:38.584Z,130
2017-03-07T10:12:38.196Z,120
2017-03-07T10:13:39.589Z,115
2017-03-07T10:14:37.517Z,105
2017-03-07T10:15:37.121Z,110
2017-03-07T10:16:37.567Z,100
2017-03-07T10:17:37.323Z,95
2017-03-07T10:18:39.415Z,95
2017-03-07T10:19:37.607Z,100
2017-03-07T10:20:38.092Z,90
2017-03-07T10:21:37.699Z,90
2017-03-07T10:22:37.323Z,105
2017-03-07T10:23:37.475Z,100
2017-03-07T10:24:37.413Z,100
2017-03-07T10:25:37.551Z,95
2017-03-07T10:26:38.135Z,85
2017-03-07T10:27:37.112Z,85
2017-03-07T10:28:38.306Z,95
2017-03-07T10:29:37.560Z,90
2017-03-07T10:30:38.404Z,80
2017-03-07T10:31:38.026Z,80
2017-03-07T10:32:38.857Z,75
2017-03-07T10:33:38.530Z,70
2017-03-07T10:34:37.739Z,70
2017-03-07T10:35:37.493Z,70
2017-03-07T10:36:38.198Z,70
2017-03-07T10:37:37.849Z,65
2017-03-07T10:38:39.026Z,60
2017-03-07T10:39:38.281Z,60
2017-03-07T10:40:38.388Z,60
2017-03-07T10:41:38.385Z,60
2017-03-07T10:42:38.401Z,55
2017-03-07T10:43:38.456Z,55
2017-03-07T10:44:39.223Z,50
2017-03-07T10:45:38.565Z,50
2017-03-07T10:46:38.924Z,50
2017-03-07T10:47:38.570Z,50
2017-03-07T10:48:38.757Z,55
2017-03-07T10:49:38.624Z,60
2017-03-07T10:50:37.955Z,65
2017-03-07T10:51:38.695Z,60
2017-03-07T10:52:38.012Z,70
2017-03-07T10:53:38.379Z,70
2017-03-07T10:54:38.395Z,65
2017-03-07T10:55:38.858Z,70
2017-03-07T10:56:39.296Z,70
2017-03-07T10:57:38.891Z,95
2017-03-07T10:58:38.963Z,90
2017-03-07T10:59:39.350Z,75
2017-03-07T11:00:39.003Z,75
2017-03-07T11:01:39.218Z,80
2017-03-07T11:02:39.047Z,85
2017-03-07T11:03:38.690Z,70
2017-03-07T11:04:39.223Z,75
2017-03-07T11:05:38.507Z,100
2017-03-07T11:06:39.966Z,100
2017-03-07T11:07:39.648Z,110
2017-03-07T11:08:39.007Z,115
2017-03-07T11:09:38.548Z,110
2017-03-07T11:10:38.937Z,95
2017-03-07T11:11:39.755Z,95
2017-03-07T11:12:38.995Z,80
2017-03-07T11:13:39.822Z,70
2017-03-07T11:14:39.468Z,65
2017-03-07T11:15:39.922Z,65
2017-03-07T11:16:39.124Z,65
2017-03-07T11:17:39.548Z,75
2017-03-07T11:18:39.983Z,75
2017-03-07T11:19:38.943Z,75
2017-03-07T11:20:38.880Z,75
2017-03-07T11:21:40.087Z,75
2017-03-07T11:22:39.730Z,75
2017-03-07T11:23:39.373Z,75
2017-03-07T11:24:39.785Z,75
2017-03-07T11:25:39.829Z,75
2017-03-07T11:26:39.472Z,70
2017-03-07T11:27:39.876Z,75
2017-03-07T11:28:39.929Z,75
2017-03-07T11:29:39.955Z,80
2017-03-07T11:30:39.990Z,70
2017-03-07T11:31:39.617Z,65
2017-03-07T11:32:39.750Z,70
2017-03-07T11:33:39.693Z,70
2017-03-07T11:34:40.139Z,65
2017-03-07T11:35:40.143Z,65
2017-03-07T11:36:40.192Z,60
2017-03-07T11:37:39.813Z,55
2017-03-07T11:38:40.290Z,60
2017-03-07T11:39:40.675Z,65
2017-03-07T11:40:39.950Z,65
2017-03-07T11:41:39.980Z,60
2017-03-07T11:42:40.388Z,60
2017-03-07T11:43:40.414Z,65
2017-03-07T11:44:40.068Z,60
2017-03-07T11:45:40.096Z,65
2017-03-07T11:46:40.145Z,60
2017-03-07T11:47:40.932Z,55
2017-03-07T11:48:40.972Z,55
2017-03-07T11:49:40.608Z,55
2017-03-07T11:50:39.894Z,55
2017-03-07T11:51:40.303Z,55
2017-03-07T11:52:40.725Z,50
2017-03-07T11:53:41.162Z,45
2017-03-07T11:54:40.372Z,45
2017-03-07T11:55:41.620Z,45
2017-03-07T11:56:40.847Z,55
2017-03-07T11:57:41.312Z,70
2017-03-07T11:58:41.314Z,85
2017-03-07T11:59:41.759Z,90
2017-03-07T12:00:41.004Z,90
2017-03-07T12:01:40.624Z,90
2017-03-07T12:02:40.644Z,90
2017-03-07T12:03:40.690Z,90
2017-03-07T12:04:40.715Z,85
2017-03-07T12:05:41.147Z,85
2017-03-07T12:06:41.204Z,85
2017-03-07T12:07:40.863Z,90
2017-03-07T12:08:41.478Z,90
2017-03-07T12:09:40.480Z,95
2017-03-07T12:10:40.921Z,95
2017-03-07T12:11:40.945Z,90
2017-03-07T12:12:40.575Z,90
2017-03-07T12:13:41.010Z,85
2017-03-07T12:14:41.061Z,80
2017-03-07T12:15:42.269Z,80
2017-03-07T12:16:41.122Z,85
2017-03-07T12:17:40.750Z,90
2017-03-07T12:18:41.557Z,90
2017-03-07T12:19:42.036Z,95
2017-03-07T12:20:41.632Z,95
2017-03-07T12:21:41.679Z,95
2017-03-07T12:22:40.919Z,95
2017-03-07T12:23:41.818Z,90
2017-03-07T12:24:41.374Z,80
2017-03-07T12:25:41.807Z,80
2017-03-07T12:26:42.640Z,85
2017-03-07T12:27:41.548Z,85
2017-03-07T12:28:41.909Z,70
2017-03-07T12:29:42.331Z,85
2017-03-07T12:30:41.571Z,80
2017-03-07T12:31:42.003Z,90
2017-03-07T12:32:42.032Z,90
2017-03-07T12:33:41.686Z,120
2017-03-07T12:34:42.101Z,120
2017-03-07T12:35:41.750Z,85
2017-03-07T12:36:41.410Z,75
2017-03-07T12:37:42.214Z,65
2017-03-07T12:38:42.642Z,90
2017-03-07T12:39:42.285Z,95
2017-03-07T12:40:41.519Z,95
2017-03-07T12:41:41.690Z,80
2017-03-07T12:42:41.970Z,90
2017-03-07T12:43:42.399Z,85
2017-03-07T12:44:42.841Z,90
2017-03-07T12:45:41.692Z,85
2017-03-07T12:46:42.095Z,90
2017-03-07T12:47:42.943Z,90
2017-03-07T12:48:42.565Z,85
2017-03-07T12:49:42.662Z,75
2017-03-07T12:50:42.222Z,80
2017-03-07T12:51:42.067Z,75
2017-03-07T12:52:41.922Z,75
2017-03-07T12:53:43.134Z,75
2017-03-07T12:54:41.981Z,75
2017-03-07T12:55:42.793Z,70
2017-03-07T12:56:42.062Z,65
2017-03-07T12:57:42.921Z,70
2017-03-07T12:58:42.918Z,70
2017-03-07T12:59:42.927Z,70
2017-03-07T13:00:43.032Z,65
2017-03-07T13:01:42.764Z,65
2017-03-07T13:02:43.163Z,65
2017-03-07T13:03:42.715Z,60
2017-03-07T13:04:43.088Z,70
2017-03-07T13:05:43.542Z,75
2017-03-07T13:06:42.772Z,75
2017-03-07T13:07:43.763Z,70
2017-03-07T13:08:43.292Z,75
2017-03-07T13:09:43.359Z,85
2017-03-07T13:11:57.378Z,80
2017-03-07T13:12:09.700Z,80
2017-03-07T13:13:09.646Z,70
2017-03-07T13:14:09.622Z,65
2017-03-07T13:15:09.833Z,65
2017-03-07T13:16:09.349Z,65
2017-03-07T13:17:10.226Z,60
2017-03-07T13:18:09.492Z,55
2017-03-07T13:19:09.379Z,55
2017-03-07T13:20:10.308Z,50
2017-03-07T13:21:09.369Z,50
2017-03-07T13:22:10.264Z,55
2017-03-07T13:23:09.881Z,55
2017-03-07T13:24:09.858Z,50
2017-03-07T13:25:09.205Z,50
2017-03-07T13:26:09.545Z,45
2017-03-07T13:27:09.220Z,45
2017-03-07T13:28:10.001Z,45
2017-03-07T13:29:10.022Z,40
2017-03-07T13:30:10.189Z,40
2017-03-07T13:31:09.709Z,45
2017-03-07T13:32:09.744Z,40
2017-03-07T13:33:09.801Z,45
2017-03-07T13:34:10.986Z,45
2017-03-07T13:35:10.633Z,45
2017-03-07T13:36:10.686Z,45
2017-03-07T13:37:10.296Z,40
2017-03-07T13:38:10.729Z,40
2017-03-07T13:39:10.419Z,40
2017-03-07T13:40:10.387Z,40
2017-03-07T13:41:10.225Z,35
2017-03-07T13:42:10.110Z,35
2017-03-07T13:43:10.891Z,40
2017-03-07T13:44:10.560Z,40
2017-03-07T13:45:10.496Z,40
2017-03-07T13:46:10.645Z,35
2017-03-07T13:47:10.638Z,35
2017-03-07T13:48:10.678Z,35
2017-03-07T13:49:10.181Z,35
2017-03-07T13:50:10.743Z,40
2017-03-07T13:51:10.803Z,40
2017-03-07T13:52:10.816Z,35
2017-03-07T13:53:10.430Z,40
2017-03-07T13:54:10.876Z,45
2017-03-07T13:55:10.489Z,70
2017-03-07T13:56:11.347Z,65
2017-03-07T13:57:11.369Z,65
2017-03-07T13:58:11.389Z,65
2017-03-07T13:59:10.657Z,75
2017-03-07T14:00:11.085Z,70
2017-03-07T14:01:11.108Z,75
2017-03-07T14:02:11.775Z,85
2017-03-07T14:03:11.668Z,90
2017-03-07T14:04:11.194Z,80
2017-03-07T14:05:12.010Z,65
2017-03-07T14:06:11.322Z,55
2017-03-07T14:07:11.011Z,50
2017-03-07T14:08:11.318Z,50
2017-03-07T14:09:11.741Z,45
2017-03-07T14:10:12.179Z,40
2017-03-07T14:11:11.038Z,35
2017-03-07T14:12:10.684Z,35
2017-03-07T14:13:11.095Z,30
2017-03-07T14:14:11.930Z,25
2017-03-07T14:15:11.550Z,25
2017-03-07T14:16:11.220Z,30
2017-03-07T14:17:11.317Z,30
2017-03-07T14:18:12.070Z,30
2017-03-07T14:19:12.509Z,30
2017-03-07T14:20:11.354Z,30
2017-03-07T14:21:10.965Z,35
2017-03-07T14:22:11.405Z,30
2017-03-07T14:23:11.423Z,30
2017-03-07T14:24:12.058Z,35
2017-03-07T14:25:11.888Z,35
2017-03-07T14:26:12.329Z,35
2017-03-07T14:27:11.167Z,30
2017-03-07T14:28:11.604Z,30
2017-03-07T14:29:11.615Z,30
2017-03-07T14:30:12.103Z,30
2017-03-07T14:31:11.685Z,30
2017-03-07T14:32:11.750Z,30
2017-03-07T14:33:11.384Z,35
2017-03-07T14:34:12.185Z,35
2017-03-07T14:35:11.814Z,40
2017-03-07T14:36:11.843Z,40
2017-03-07T14:37:12.278Z,40